Terminal Aerodrome Forecast
Issued by NWS

Home | Current Version | Previous Version | Text Only | Print | Product List | Glossary On
Versions: 1 2 3 4 5 6 7 8 9 10 11 12 13 14 15
000
FTUS42 KTBW 221728
TAFRSW
TAF
KRSW 221728Z 2218/2318 12010KT P6SM SCT035 BKN150
     FM230100 14007KT P6SM SCT050 BKN100
     FM230800 14004KT 5SM BR BKN015
     FM231100 17003KT 5SM BR VCSH BKN015
     FM231400 19007KT P6SM VCSH BKN050=

USA.gov is the U.S. government's official web portal to all federal, state and local government web resources and services.